Time;durP1;ratioP1;P1;durP2;ratioP2;P2;SDS_P1;SDS_P2;PMS_P1;PMS_P2;Temp;Humidity;BMP_temperature;BMP_pressure;BME280_temperature;BME280_humidity;BME280_pressure;Samples;Min_cycle;Max_cycle;Signal;HPM_P1;HPM_P2
2022/12/30 00:00:12;;;;;;;10.20;2.07;;;;;6.20;100521.00;;;;9790462;30;20205;-79
2022/12/30 00:05:14;;;;;;;4.90;1.87;;;;;6.10;100526.00;;;;9792999;30;20225;-79
2022/12/30 00:10:16;;;;;;;9.73;1.87;;;;;6.10;100517.00;;;;9763855;30;20224;-80
2022/12/30 00:36:41;;;;;;;8.60;1.70;;;;;5.90;100515.00;;;;9770411;30;20205;-79
2022/12/30 00:47:05;;;;;;;8.17;2.10;;;;;5.90;100528.00;;;;9792263;30;20252;-80
2022/12/30 00:57:28;;;;;;;12.70;3.70;;;;;5.90;100542.00;;;;9806148;30;20204;-80
2022/12/30 01:02:30;;;;;;;7.37;1.50;;;;;5.70;100535.00;;;;9791977;30;20291;-80
2022/12/30 01:07:32;;;;;;;7.03;1.80;;;;;5.60;100553.00;;;;9772408;30;20216;-80
2022/12/30 01:12:34;;;;;;;10.17;2.17;;;;;5.60;100540.00;;;;9806088;30;20209;-80
2022/12/30 01:17:36;;;;;;;11.77;2.20;;;;;5.40;100545.00;;;;9778328;30;20665;-80
2022/12/30 01:22:38;;;;;;;11.87;2.33;;;;;5.40;100549.00;;;;9776336;30;20329;-80
2022/12/30 01:27:53;;;;;;;6.43;1.50;;;;;5.20;100552.00;;;;10558884;27;20622;-82
2022/12/30 01:32:54;;;;;;;10.90;2.00;;;;;5.10;100562.00;;;;10482831;28;20228;-82
2022/12/30 01:37:56;;;;;;;10.77;2.57;;;;;5.10;100563.00;;;;10473526;28;20250;-82
2022/12/30 01:42:58;;;;;;;10.10;1.60;;;;;5.10;100566.00;;;;10494863;28;20243;-82
2022/12/30 01:48:04;;;;;;;11.43;2.23;;;;;5.00;100565.00;;;;10443473;28;20277;-81
2022/12/30 01:53:08;;;;;;;7.50;2.00;;;;;5.00;100576.00;;;;10504844;28;20196;-82
2022/12/30 01:58:21;;;;;;;8.97;2.27;;;;;4.90;100565.00;;;;10521468;28;20189;-82
2022/12/30 02:03:26;;;;;;;13.37;2.23;;;;;4.80;100564.00;;;;10460199;28;20210;-80
2022/12/30 02:08:36;;;;;;;12.73;2.57;;;;;4.80;100565.00;;;;10480378;28;20656;-80
2022/12/30 02:13:38;;;;;;;10.07;2.17;;;;;4.90;100542.00;;;;10485475;28;20733;-80
2022/12/30 02:18:58;;;;;;;10.20;2.33;;;;;4.80;100543.00;;;;10487723;28;20619;-80
2022/12/30 02:24:10;;;;;;;9.37;1.97;;;;;4.90;100531.00;;;;10471013;28;20205;-80
2022/12/30 02:29:24;;;;;;;16.23;2.63;;;;;4.90;100529.00;;;;10476502;28;20828;-80
2022/12/30 02:34:39;;;;;;;14.87;2.33;;;;;4.80;100522.00;;;;10463812;28;20212;-80
2022/12/30 02:39:55;;;;;;;8.00;2.03;;;;;4.80;100512.00;;;;10467628;28;20232;-81
2022/12/30 02:45:06;;;;;;;10.13;2.23;;;;;4.80;100511.00;;;;10465221;28;20240;-80
2022/12/30 02:55:52;;;;;;;8.40;2.30;;;;;4.80;100494.00;;;;10476211;28;20725;-79
2022/12/30 03:07:16;;;;;;;15.57;1.97;;;;;4.80;100485.00;;;;10426941;28;20237;-79
2022/12/30 03:12:28;;;;;;;11.17;2.30;;;;;4.90;100491.00;;;;10431248;28;20193;-79
2022/12/30 03:17:33;;;;;;;9.90;2.00;;;;;4.80;100482.00;;;;10424330;28;20187;-79
2022/12/30 03:28:02;;;;;;;9.17;2.53;;;;;4.80;100488.00;;;;10424204;28;20222;-79
2022/12/30 03:33:04;;;;;;;5.63;1.67;;;;;4.70;100486.00;;;;10424587;28;20557;-79
2022/12/30 03:38:08;;;;;;;11.33;2.97;;;;;4.70;100487.00;;;;10464089;28;20198;-79
2022/12/30 03:43:10;;;;;;;5.13;1.67;;;;;4.70;100483.00;;;;10459521;28;20186;-80
2022/12/30 03:48:12;;;;;;;9.13;2.33;;;;;4.60;100491.00;;;;10429232;28;20203;-79
2022/12/30 03:53:14;;;;;;;8.57;2.57;;;;;4.60;100484.00;;;;10447484;28;20200;-79
2022/12/30 03:58:16;;;;;;;4.67;1.70;;;;;4.50;100483.00;;;;10439729;28;20195;-79
2022/12/30 04:03:18;;;;;;;8.90;1.80;;;;;4.40;100466.00;;;;10440501;28;20280;-79
2022/12/30 04:08:21;;;;;;;12.47;2.57;;;;;4.30;100473.00;;;;10440239;28;20196;-79
2022/12/30 04:13:22;;;;;;;9.50;2.40;;;;;4.30;100453.00;;;;10463208;28;20827;-79
2022/12/30 04:18:24;;;;;;;15.40;2.43;;;;;4.30;100462.00;;;;10444892;28;20248;-79
2022/12/30 04:23:26;;;;;;;11.27;2.67;;;;;4.30;100468.00;;;;10410223;28;20220;-79
2022/12/30 04:28:28;;;;;;;8.73;2.80;;;;;4.20;100464.00;;;;10440394;28;20213;-78
2022/12/30 04:33:31;;;;;;;5.00;1.97;;;;;4.30;100460.00;;;;10455297;28;20181;-79
2022/12/30 04:38:33;;;;;;;7.93;2.10;;;;;4.40;100459.00;;;;10447347;28;20228;-79
2022/12/30 04:43:35;;;;;;;9.90;2.37;;;;;4.50;100446.00;;;;10479120;28;20248;-79
2022/12/30 04:48:37;;;;;;;9.40;2.30;;;;;4.50;100443.00;;;;10437748;28;20225;-79
2022/12/30 04:53:39;;;;;;;6.23;2.43;;;;;4.50;100419.00;;;;10451442;28;20189;-79
2022/12/30 04:58:41;;;;;;;14.30;3.17;;;;;4.50;100409.00;;;;10420886;28;20205;-79
2022/12/30 05:03:44;;;;;;;17.13;2.97;;;;;4.50;100398.00;;;;10430306;28;20221;-79
2022/12/30 05:08:45;;;;;;;10.33;3.87;;;;;4.60;100409.00;;;;10496264;28;20220;-79
2022/12/30 05:13:47;;;;;;;9.80;3.63;;;;;4.60;100425.00;;;;10453713;28;20253;-79
2022/12/30 05:18:49;;;;;;;12.30;3.90;;;;;4.60;100428.00;;;;10461914;28;20227;-79
2022/12/30 05:29:11;;;;;;;10.83;3.53;;;;;4.60;100440.00;;;;10454490;28;20185;-80
2022/12/30 05:34:13;;;;;;;8.83;3.73;;;;;4.60;100429.00;;;;10456033;28;20190;-80
2022/12/30 05:39:15;;;;;;;12.00;3.60;;;;;4.60;100433.00;;;;10423457;28;20197;-81
2022/12/30 05:44:17;;;;;;;8.40;3.33;;;;;4.70;100424.00;;;;10426618;28;20220;-80
2022/12/30 05:49:19;;;;;;;12.60;3.63;;;;;4.80;100415.00;;;;10420846;28;20196;-80
2022/12/30 05:54:21;;;;;;;7.73;2.77;;;;;4.80;100406.00;;;;10448835;28;20228;-80
2022/12/30 05:59:23;;;;;;;6.37;3.37;;;;;4.90;100397.00;;;;10456016;28;20743;-80
2022/12/30 06:04:24;;;;;;;12.03;2.90;;;;;4.90;100384.00;;;;10462015;28;20213;-80
2022/12/30 06:09:26;;;;;;;6.70;2.77;;;;;5.00;100378.00;;;;10450883;28;20719;-80
2022/12/30 06:14:28;;;;;;;9.87;3.20;;;;;5.10;100368.00;;;;10440245;28;20194;-79
2022/12/30 06:19:30;;;;;;;8.80;2.90;;;;;5.20;100353.00;;;;10459768;28;20640;-79
2022/12/30 06:24:32;;;;;;;7.13;2.70;;;;;5.30;100341.00;;;;10434913;28;20221;-80
2022/12/30 06:29:34;;;;;;;5.67;2.40;;;;;5.40;100330.00;;;;10447957;28;20661;-79
2022/12/30 06:34:36;;;;;;;7.80;2.40;;;;;5.50;100314.00;;;;10435750;28;20194;-80
2022/12/30 06:39:38;;;;;;;7.70;2.73;;;;;5.60;100318.00;;;;10427769;28;20190;-80
2022/12/30 06:44:40;;;;;;;7.67;2.23;;;;;5.60;100310.00;;;;10457812;28;20217;-80
2022/12/30 06:49:42;;;;;;;11.10;2.30;;;;;5.60;100287.00;;;;10454315;28;20212;-80
2022/12/30 06:54:44;;;;;;;6.13;2.10;;;;;5.70;100272.00;;;;10450265;28;20188;-80
2022/12/30 06:59:45;;;;;;;6.13;2.03;;;;;5.80;100287.00;;;;10474248;28;20266;-81
2022/12/30 07:04:47;;;;;;;4.00;1.90;;;;;5.90;100272.00;;;;10429603;28;20208;-80
2022/12/30 07:09:49;;;;;;;3.63;1.77;;;;;6.00;100274.00;;;;10442001;28;20270;-79
2022/12/30 07:14:51;;;;;;;8.80;2.27;;;;;6.00;100264.00;;;;10468846;28;20189;-79
2022/12/30 07:19:53;;;;;;;4.13;1.50;;;;;6.10;100243.00;;;;10445653;28;20201;-80
2022/12/30 07:24:55;;;;;;;7.73;1.90;;;;;6.10;100236.00;;;;10425018;28;20221;-80
2022/12/30 07:29:57;;;;;;;11.57;2.20;;;;;6.10;100214.00;;;;10438044;28;20198;-80
2022/12/30 07:34:59;;;;;;;7.70;1.80;;;;;6.10;100206.00;;;;10427945;28;20216;-79
2022/12/30 07:40:02;;;;;;;4.27;1.63;;;;;6.20;100185.00;;;;10453507;28;20575;-79
2022/12/30 07:45:05;;;;;;;6.00;2.27;;;;;6.10;100200.00;;;;10465622;28;20237;-81
2022/12/30 07:50:07;;;;;;;6.80;1.90;;;;;6.10;100195.00;;;;10473336;28;20197;-80
2022/12/30 07:55:09;;;;;;;4.20;2.07;;;;;6.10;100181.00;;;;10468375;28;20530;-80
2022/12/30 08:00:12;;;;;;;4.47;1.60;;;;;6.20;100187.00;;;;10456326;28;20186;-79
2022/12/30 08:05:13;;;;;;;6.57;2.10;;;;;6.20;100158.00;;;;10437691;28;20263;-80
2022/12/30 08:10:16;;;;;;;3.20;1.60;;;;;6.30;100157.00;;;;10438887;28;20190;-79
2022/12/30 08:15:17;;;;;;;5.43;1.87;;;;;6.30;100130.00;;;;10453975;28;20192;-79
2022/12/30 08:20:19;;;;;;;7.87;1.60;;;;;6.40;100133.00;;;;10438780;28;20679;-80
2022/12/30 08:25:21;;;;;;;3.67;1.43;;;;;6.50;100117.00;;;;10455642;28;20218;-80
2022/12/30 08:30:23;;;;;;;1.90;1.40;;;;;6.70;100094.00;;;;10438620;28;20221;-80
2022/12/30 08:35:25;;;;;;;2.30;1.23;;;;;6.80;100101.00;;;;10438442;28;20183;-79
2022/12/30 08:40:27;;;;;;;3.67;1.50;;;;;7.00;100070.00;;;;10488842;28;20189;-79
2022/12/30 08:45:29;;;;;;;2.67;1.30;;;;;7.10;100079.00;;;;10421244;28;20268;-79
2022/12/30 08:50:31;;;;;;;4.23;1.50;;;;;7.20;100082.00;;;;10437432;28;20253;-80
2022/12/30 08:55:33;;;;;;;4.87;1.73;;;;;7.30;100089.00;;;;10457616;28;20285;-80
2022/12/30 09:00:36;;;;;;;3.80;1.13;;;;;7.50;100079.00;;;;10439430;28;20629;-79
2022/12/30 09:05:38;;;;;;;2.10;1.10;;;;;7.70;100076.00;;;;10440349;28;20206;-79
2022/12/30 09:10:40;;;;;;;6.00;1.70;;;;;7.80;100080.00;;;;10438178;28;20198;-79
2022/12/30 09:15:42;;;;;;;7.17;1.30;;;;;8.00;100062.00;;;;10455293;28;20198;-79
2022/12/30 09:20:44;;;;;;;7.00;1.50;;;;;8.00;100046.00;;;;10454706;28;20230;-79
2022/12/30 09:25:46;;;;;;;3.50;1.40;;;;;8.10;100039.00;;;;10453383;28;20226;-80
2022/12/30 09:30:48;;;;;;;6.00;1.43;;;;;8.10;100026.00;;;;10443609;28;20190;-80
2022/12/30 09:35:50;;;;;;;4.33;1.10;;;;;8.10;100012.00;;;;10435486;28;20216;-80
2022/12/30 09:41:11;;;;;;;5.23;1.40;;;;;8.10;99995.00;;;;10457200;28;20185;-80
2022/12/30 09:46:40;;;;;;;3.97;1.20;;;;;8.10;99981.00;;;;10446565;28;20209;-80
2022/12/30 09:51:47;;;;;;;5.07;1.37;;;;;8.10;99983.00;;;;10468266;28;20277;-80
2022/12/30 09:56:51;;;;;;;6.83;1.67;;;;;8.20;99979.00;;;;10436218;28;20213;-80
2022/12/30 10:01:59;;;;;;;5.97;1.47;;;;;8.20;99955.00;;;;10465638;28;20659;-80
2022/12/30 10:07:22;;;;;;;6.13;1.70;;;;;8.30;99944.00;;;;10472255;28;20491;-80
2022/12/30 10:12:57;;;;;;;7.20;1.57;;;;;8.40;99924.00;;;;10438315;28;20254;-80
2022/12/30 10:18:28;;;;;;;5.57;1.50;;;;;8.50;99933.00;;;;10437477;28;20205;-81
2022/12/30 10:23:54;;;;;;;6.03;1.17;;;;;8.70;99908.00;;;;10495555;28;20204;-80
2022/12/30 10:28:59;;;;;;;5.07;1.03;;;;;8.80;99899.00;;;;10488112;28;20299;-81
2022/12/30 10:34:18;;;;;;;5.13;1.30;;;;;8.80;99875.00;;;;10504507;28;20192;-80
2022/12/30 10:39:24;;;;;;;2.23;1.10;;;;;9.00;99855.00;;;;10445737;28;20196;-79
2022/12/30 10:44:59;;;;;;;3.33;1.37;;;;;9.00;99848.00;;;;10462715;28;20259;-80
2022/12/30 10:50:25;;;;;;;6.77;1.60;;;;;9.10;99823.00;;;;10456374;28;20224;-80
2022/12/30 10:55:31;;;;;;;4.97;1.37;;;;;9.10;99801.00;;;;10422359;28;20909;-80
2022/12/30 11:00:35;;;;;;;6.83;2.10;;;;;9.30;99772.00;;;;10443376;28;20220;-80
2022/12/30 11:05:40;;;;;;;3.27;1.20;;;;;9.30;99749.00;;;;10461428;28;20260;-80
2022/12/30 11:10:42;;;;;;;8.83;1.33;;;;;9.30;99736.00;;;;10458316;28;20198;-81
2022/12/30 11:15:53;;;;;;;5.83;1.57;;;;;9.30;99712.00;;;;10491202;28;20177;-78
2022/12/30 11:21:00;;;;;;;5.80;1.57;;;;;9.20;99698.00;;;;10509319;28;20201;-80
2022/12/30 11:26:08;;;;;;;4.53;1.23;;;;;9.10;99696.00;;;;10430629;28;20214;-80
2022/12/30 11:31:15;;;;;;;4.03;1.00;;;;;8.80;99679.00;;;;10369360;28;20249;-78
2022/12/30 11:36:26;;;;;;;3.97;1.60;;;;;8.60;99671.00;;;;10389248;28;20287;-78
2022/12/30 11:41:29;;;;;;;2.47;1.30;;;;;8.50;99662.00;;;;10382510;28;20202;-81
2022/12/30 11:46:40;;;;;;;2.00;1.00;;;;;8.40;99658.00;;;;10399334;28;20405;-81
2022/12/30 11:51:47;;;;;;;3.23;1.33;;;;;8.30;99636.00;;;;10393706;28;20222;-81
2022/12/30 11:56:55;;;;;;;2.93;1.03;;;;;8.20;99618.00;;;;10411363;28;20199;-81
2022/12/30 12:02:01;;;;;;;2.03;0.80;;;;;8.20;99590.00;;;;10354767;28;20662;-80
2022/12/30 12:07:15;;;;;;;2.63;1.23;;;;;8.20;99563.00;;;;10412813;28;20305;-79
2022/12/30 12:12:21;;;;;;;1.63;0.90;;;;;8.20;99529.00;;;;10402385;28;20209;-81
2022/12/30 12:17:47;;;;;;;2.13;0.83;;;;;8.40;99497.00;;;;10451642;28;20193;-81
2022/12/30 12:23:20;;;;;;;5.07;1.00;;;;;8.60;99472.00;;;;10422823;28;20191;-81
2022/12/30 12:28:24;;;;;;;0.70;0.63;;;;;8.90;99434.00;;;;10455057;28;20210;-79
2022/12/30 12:33:32;;;;;;;2.20;0.83;;;;;9.10;99399.00;;;;10462372;28;20194;-79
2022/12/30 12:38:48;;;;;;;4.07;0.83;;;;;9.00;99397.00;;;;10481677;28;20281;-79
2022/12/30 12:44:17;;;;;;;0.97;0.60;;;;;8.90;99399.00;;;;10441736;28;20621;-79
2022/12/30 12:49:37;;;;;;;1.23;0.70;;;;;8.80;99393.00;;;;10449032;28;20578;-80
2022/12/30 12:54:57;;;;;;;0.57;0.53;;;;;8.70;99361.00;;;;10449838;28;20239;-79
2022/12/30 13:00:07;;;;;;;0.90;0.50;;;;;8.60;99363.00;;;;10462212;28;20591;-79
2022/12/30 13:05:21;;;;;;;1.87;0.40;;;;;8.60;99350.00;;;;10451952;28;20213;-80
2022/12/30 13:10:39;;;;;;;0.40;0.30;;;;;8.70;99331.00;;;;10435424;28;20205;-79
2022/12/30 13:16:21;;;;;;;0.83;0.60;;;;;8.70;99354.00;;;;10460408;28;20704;-78
2022/12/30 13:21:25;;;;;;;1.13;0.70;;;;;8.90;99329.00;;;;10480118;28;20201;-79
2022/12/30 13:26:29;;;;;;;2.00;0.40;;;;;9.00;99293.00;;;;10473806;28;20220;-79
2022/12/30 13:31:57;;;;;;;0.27;0.27;;;;;9.10;99299.00;;;;10476148;28;20247;-79
2022/12/30 13:37:12;;;;;;;1.43;0.70;;;;;9.00;99312.00;;;;10473724;28;20244;-78
2022/12/30 13:42:34;;;;;;;1.70;0.60;;;;;9.00;99316.00;;;;10486852;28;20216;-78
2022/12/30 13:47:42;;;;;;;1.53;0.60;;;;;9.10;99299.00;;;;10484006;28;20300;-78
2022/12/30 13:52:50;;;;;;;1.00;0.60;;;;;9.10;99310.00;;;;10496995;28;20621;-77
2022/12/30 13:58:15;;;;;;;0.50;0.50;;;;;9.30;99283.00;;;;10511004;28;20648;-78
2022/12/30 14:03:17;;;;;;;0.47;0.47;;;;;9.50;99271.00;;;;10467488;28;20201;-78
2022/12/30 14:08:25;;;;;;;0.50;0.50;;;;;9.60;99281.00;;;;10450630;28;20236;-78
2022/12/30 14:13:29;;;;;;;0.30;0.30;;;;;9.60;99279.00;;;;10496875;28;20203;-77
2022/12/30 14:18:37;;;;;;;0.47;0.47;;;;;9.80;99237.00;;;;10498179;28;20234;-79
2022/12/30 14:23:46;;;;;;;0.37;0.30;;;;;9.90;99257.00;;;;10515585;28;20198;-79
2022/12/30 14:28:58;;;;;;;2.43;1.23;;;;;10.00;99261.00;;;;10533708;28;20884;-78
2022/12/30 14:34:22;;;;;;;0.40;0.30;;;;;10.00;99278.00;;;;10456315;28;20207;-77
2022/12/30 14:39:26;;;;;;;0.50;0.50;;;;;10.10;99271.00;;;;10460088;28;20283;-77
2022/12/30 14:44:31;;;;;;;1.70;0.40;;;;;10.20;99300.00;;;;10459280;28;20309;-78
2022/12/30 14:49:50;;;;;;;1.03;0.40;;;;;10.30;99284.00;;;;10482384;28;20335;-78
2022/12/30 14:55:17;;;;;;;0.73;0.30;;;;;10.40;99300.00;;;;10496985;28;20188;-78
2022/12/30 15:00:21;;;;;;;0.70;0.30;;;;;10.50;99296.00;;;;10480551;28;20217;-80
2022/12/30 15:05:26;;;;;;;1.33;0.33;;;;;10.60;99311.00;;;;10471637;28;20304;-80
2022/12/30 15:10:28;;;;;;;0.30;0.30;;;;;10.60;99317.00;;;;10459483;28;20775;-79
2022/12/30 15:15:33;;;;;;;0.50;0.30;;;;;10.70;99315.00;;;;10474103;28;20185;-78
2022/12/30 15:20:35;;;;;;;0.40;0.30;;;;;10.80;99333.00;;;;10497257;28;20192;-78
2022/12/30 15:25:40;;;;;;;0.23;0.23;;;;;10.80;99349.00;;;;10485235;28;20223;-78
2022/12/30 15:30:48;;;;;;;1.33;0.70;;;;;10.70;99359.00;;;;10498185;28;20735;-78
2022/12/30 15:35:51;;;;;;;0.47;0.47;;;;;10.80;99361.00;;;;10490793;28;20280;-78
2022/12/30 15:40:59;;;;;;;0.63;0.50;;;;;10.80;99359.00;;;;10508970;28;20603;-78
2022/12/30 15:46:04;;;;;;;0.40;0.40;;;;;11.00;99360.00;;;;10486202;28;20304;-77
2022/12/30 15:51:13;;;;;;;1.20;0.50;;;;;11.10;99364.00;;;;10493628;28;20196;-78
2022/12/30 15:56:17;;;;;;;1.13;0.70;;;;;11.20;99373.00;;;;10482192;28;20264;-77
2022/12/30 16:01:30;;;;;;;1.20;1.10;;;;;11.30;99375.00;;;;10478131;28;20194;-78
2022/12/30 16:06:33;;;;;;;0.73;0.70;;;;;11.40;99380.00;;;;10521209;28;20204;-78
2022/12/30 16:11:36;;;;;;;0.60;0.60;;;;;11.50;99388.00;;;;10481346;28;20245;-79
2022/12/30 16:17:20;;;;;;;0.50;0.50;;;;;11.50;99398.00;;;;10504967;28;20181;-78
2022/12/30 16:22:25;;;;;;;1.60;0.73;;;;;11.60;99407.00;;;;10494380;28;20195;-77
2022/12/30 16:27:29;;;;;;;1.20;1.10;;;;;11.60;99426.00;;;;10511478;28;20359;-78
2022/12/30 16:32:31;;;;;;;0.67;0.67;;;;;11.70;99419.00;;;;10513721;28;20516;-79
2022/12/30 16:37:40;;;;;;;0.90;0.90;;;;;11.90;99430.00;;;;10495311;28;20193;-79
2022/12/30 16:42:52;;;;;;;0.73;0.73;;;;;12.00;99434.00;;;;10472660;28;20536;-78
2022/12/30 16:47:54;;;;;;;0.80;0.50;;;;;12.00;99452.00;;;;10487730;28;20660;-76
2022/12/30 16:52:56;;;;;;;2.07;0.90;;;;;11.90;99474.00;;;;10479737;28;20671;-79
2022/12/30 16:58:00;;;;;;;1.70;1.23;;;;;12.00;99474.00;;;;10465627;28;20640;-79
2022/12/30 17:03:27;;;;;;;5.00;2.67;;;;;12.20;99489.00;;;;10492983;28;20207;-78
2022/12/30 17:08:31;;;;;;;1.47;1.10;;;;;12.30;99512.00;;;;10480967;28;20197;-78
2022/12/30 17:13:36;;;;;;;1.20;1.10;;;;;12.30;99525.00;;;;10501561;28;20212;-78
2022/12/30 17:18:38;;;;;;;1.63;1.23;;;;;12.20;99530.00;;;;10509222;28;20548;-78
2022/12/30 17:23:49;;;;;;;1.67;1.00;;;;;12.20;99574.00;;;;10491742;28;20201;-78
2022/12/30 17:28:52;;;;;;;1.47;1.37;;;;;12.10;99565.00;;;;10494548;28;20196;-78
2022/12/30 17:33:55;;;;;;;1.33;1.20;;;;;12.20;99550.00;;;;10474867;28;20185;-78
2022/12/30 17:38:58;;;;;;;2.70;1.10;;;;;12.30;99562.00;;;;10476009;28;20187;-78
2022/12/30 17:44:01;;;;;;;1.37;1.20;;;;;12.30;99579.00;;;;10448817;28;20185;-77
2022/12/30 17:49:02;;;;;;;1.50;1.40;;;;;12.30;99606.00;;;;10492629;28;20616;-78
2022/12/30 17:54:04;;;;;;;1.43;1.00;;;;;12.30;99611.00;;;;10459443;28;20192;-77
2022/12/30 17:59:06;;;;;;;1.27;1.00;;;;;12.40;99608.00;;;;10486002;28;20197;-78
2022/12/30 18:04:08;;;;;;;1.10;1.00;;;;;12.40;99616.00;;;;10496545;28;20198;-78
2022/12/30 18:09:11;;;;;;;0.83;0.73;;;;;12.50;99617.00;;;;10507434;28;20216;-78
2022/12/30 18:14:13;;;;;;;1.08;0.93;;;;;12.60;99628.00;;;;10488946;28;20317;-78
2022/12/30 18:19:14;;;;;;;2.43;2.23;;;;;12.60;99625.00;;;;10457058;28;20227;-77
2022/12/30 18:24:16;;;;;;;1.10;0.90;;;;;12.70;99633.00;;;;10461637;28;20315;-78
2022/12/30 18:29:18;;;;;;;1.23;0.90;;;;;12.60;99638.00;;;;10472010;28;20240;-78
2022/12/30 18:34:21;;;;;;;2.60;2.10;;;;;12.60;99642.00;;;;10489651;28;20295;-78
2022/12/30 18:39:22;;;;;;;1.73;1.33;;;;;12.70;99649.00;;;;10501600;28;20643;-79
2022/12/30 18:44:25;;;;;;;0.80;0.80;;;;;12.70;99649.00;;;;10507270;28;20197;-78
2022/12/30 18:49:27;;;;;;;1.40;1.17;;;;;12.70;99658.00;;;;10495918;28;20250;-78
2022/12/30 18:54:29;;;;;;;1.70;1.10;;;;;12.70;99675.00;;;;10507175;28;20193;-78
2022/12/30 18:59:31;;;;;;;1.30;1.20;;;;;12.70;99680.00;;;;10494562;28;20543;-78
2022/12/30 19:04:33;;;;;;;1.20;1.10;;;;;12.70;99677.00;;;;10494465;28;20189;-78
2022/12/30 19:09:35;;;;;;;1.57;1.47;;;;;12.70;99685.00;;;;10489365;28;20205;-78
2022/12/30 19:14:37;;;;;;;2.53;1.20;;;;;12.80;99674.00;;;;10471135;28;20655;-78
2022/12/30 19:19:39;;;;;;;1.30;1.20;;;;;12.80;99693.00;;;;10492942;28;21136;-77
2022/12/30 19:24:41;;;;;;;16.23;7.33;;;;;12.80;99691.00;;;;10508189;28;20229;-78
2022/12/30 19:29:43;;;;;;;3.70;1.70;;;;;12.90;99716.00;;;;10499218;28;20209;-78
2022/12/30 19:34:45;;;;;;;6.80;3.83;;;;;12.90;99732.00;;;;10494887;28;20193;-78
2022/12/30 19:39:47;;;;;;;2.87;2.17;;;;;12.90;99721.00;;;;10450335;28;20201;-78
2022/12/30 19:44:49;;;;;;;1.90;1.50;;;;;12.90;99734.00;;;;10468357;28;20206;-78
2022/12/30 19:49:51;;;;;;;4.18;1.58;;;;;12.80;99738.00;;;;10481325;28;20203;-78
2022/12/30 19:54:52;;;;;;;2.57;1.13;;;;;12.90;99728.00;;;;10500710;28;20200;-78
2022/12/30 19:59:54;;;;;;;1.00;0.90;;;;;13.00;99731.00;;;;10468807;28;20652;-78
2022/12/30 20:04:56;;;;;;;1.77;1.15;;;;;12.90;99738.00;;;;10477233;28;20193;-78
2022/12/30 20:09:58;;;;;;;12.10;6.33;;;;;12.90;99749.00;;;;10469987;28;20231;-78
2022/12/30 20:15:22;;;;;;;8.70;4.43;;;;;12.90;99751.00;;;;10493481;28;20235;-78
2022/12/30 20:20:24;;;;;;;2.33;1.97;;;;;12.90;99756.00;;;;10491240;28;20193;-78
2022/12/30 20:25:25;;;;;;;1.50;1.40;;;;;12.90;99755.00;;;;10482616;28;20241;-77
2022/12/30 20:30:28;;;;;;;2.83;1.42;;;;;13.00;99754.00;;;;10478777;28;20275;-78
2022/12/30 20:35:30;;;;;;;1.10;1.00;;;;;12.90;99755.00;;;;10463218;28;20289;-78
2022/12/30 20:40:32;;;;;;;3.00;1.43;;;;;12.90;99762.00;;;;10487746;28;20186;-78
2022/12/30 20:45:38;;;;;;;2.23;1.30;;;;;13.10;99780.00;;;;10475985;28;20276;-78
2022/12/30 20:50:40;;;;;;;1.65;0.98;;;;;13.20;99776.00;;;;10474253;28;20547;-77
2022/12/30 20:55:42;;;;;;;0.70;0.70;;;;;13.00;99794.00;;;;10461946;28;20200;-78
2022/12/30 21:00:44;;;;;;;2.55;0.75;;;;;12.90;99781.00;;;;10483255;28;20203;-79
2022/12/30 21:05:45;;;;;;;2.30;0.90;;;;;12.80;99789.00;;;;10471494;28;20199;-79
2022/12/30 21:11:02;;;;;;;3.03;0.70;;;;;12.70;99799.00;;;;10490597;28;20221;-78
2022/12/30 21:16:05;;;;;;;1.10;0.80;;;;;12.70;99796.00;;;;10464578;28;20193;-77
2022/12/30 21:21:08;;;;;;;4.87;1.23;;;;;12.70;99808.00;;;;10444393;28;20193;-78
2022/12/30 21:26:16;;;;;;;1.23;0.90;;;;;12.70;99799.00;;;;10469511;28;20274;-78
2022/12/30 21:31:21;;;;;;;1.20;0.85;;;;;12.70;99790.00;;;;10473652;28;20207;-78
2022/12/30 21:36:25;;;;;;;3.37;1.50;;;;;12.90;99792.00;;;;10478678;28;20289;-78
2022/12/30 22:02:58;;;;;;;0.60;0.60;;;;;13.40;99825.00;;;;10473516;28;20196;-78
2022/12/30 22:08:05;;;;;;;1.35;0.77;;;;;13.40;99825.00;;;;10474825;28;20205;-77
2022/12/30 22:13:09;;;;;;;2.30;1.85;;;;;13.40;99821.00;;;;10478710;28;20194;-78
2022/12/30 22:18:13;;;;;;;1.48;0.63;;;;;13.40;99829.00;;;;10491380;28;20189;-78
2022/12/30 22:23:22;;;;;;;1.25;0.70;;;;;13.40;99825.00;;;;10476076;28;20283;-78
2022/12/30 22:28:24;;;;;;;0.70;0.60;;;;;13.30;99819.00;;;;10494221;28;20205;-79
2022/12/30 22:33:26;;;;;;;0.80;0.80;;;;;13.30;99826.00;;;;10472406;28;20198;-78
2022/12/30 22:38:28;;;;;;;1.00;0.60;;;;;13.20;99836.00;;;;10479551;28;20251;-77
2022/12/30 22:43:30;;;;;;;1.20;0.50;;;;;13.30;99809.00;;;;10483113;28;20197;-78
2022/12/30 22:48:33;;;;;;;4.68;0.82;;;;;13.20;99836.00;;;;10474138;28;20197;-78
2022/12/30 22:53:35;;;;;;;1.38;1.00;;;;;13.10;99827.00;;;;10493671;28;20193;-79
2022/12/30 22:58:38;;;;;;;1.50;1.10;;;;;13.10;99817.00;;;;10471767;28;20267;-78
2022/12/30 23:03:40;;;;;;;1.00;0.90;;;;;13.00;99809.00;;;;10502879;28;20199;-78
2022/12/30 23:08:42;;;;;;;1.30;1.00;;;;;13.10;99821.00;;;;10483547;28;20243;-78
2022/12/30 23:19:06;;;;;;;2.33;1.13;;;;;13.30;99801.00;;;;10481097;28;20221;-79
2022/12/30 23:29:34;;;;;;;2.15;0.98;;;;;13.40;99797.00;;;;10488209;28;20224;-78
2022/12/30 23:34:36;;;;;;;0.82;0.82;;;;;13.50;99795.00;;;;10477514;28;20217;-78
2022/12/30 23:39:38;;;;;;;0.70;0.70;;;;;13.50;99770.00;;;;10484139;28;20517;-78
2022/12/30 23:44:40;;;;;;;1.92;0.77;;;;;13.40;99765.00;;;;10470286;28;20196;-78
2022/12/30 23:49:42;;;;;;;0.85;0.85;;;;;13.40;99763.00;;;;10496521;28;20596;-78
2022/12/30 23:54:44;;;;;;;0.75;0.60;;;;;13.40;99757.00;;;;10452088;28;20205;-78
2022/12/30 23:59:46;;;;;;;1.25;0.80;;;;;13.40;99766.00;;;;10467746;28;20788;-78
